Time;durP1;ratioP1;P1;durP2;ratioP2;P2;SDS_P1;SDS_P2;PMS_P1;PMS_P2;Temp;Humidity;BMP_temperature;BMP_pressure;BME280_temperature;BME280_humidity;BME280_pressure;Samples;Min_cycle;Max_cycle;Signal;HPM_P1;HPM_P2
2021/12/28 00:01:07;;;;;;;15.35;2.10;;;;;;;;;;4986220;28;20026;-66
2021/12/28 00:03:35;;;;;;;16.13;2.40;;;;;;;;;;4988709;28;20133;-66
2021/12/28 00:06:02;;;;;;;12.85;2.15;;;;;;;;;;4987811;28;20038;-66
2021/12/28 00:08:29;;;;;;;15.15;3.13;;;;;;;;;;4989157;28;20027;-65
2021/12/28 00:10:56;;;;;;;14.80;2.25;;;;;;;;;;4992000;28;20030;-62
2021/12/28 00:13:24;;;;;;;13.65;2.47;;;;;;;;;;4990874;28;20015;-66
2021/12/28 00:18:22;;;;;;;26.15;2.92;;;;;;;;;;4991686;28;20069;-63
2021/12/28 00:20:51;;;;;;;24.45;3.50;;;;;;;;;;4992369;28;20041;-64
2021/12/28 00:23:20;;;;;;;23.88;3.00;;;;;;;;;;4991626;28;20061;-64
2021/12/28 00:25:48;;;;;;;22.88;3.08;;;;;;;;;;4990421;28;20034;-65
2021/12/28 00:28:16;;;;;;;23.05;3.50;;;;;;;;;;4992241;28;20023;-65
2021/12/28 00:30:43;;;;;;;25.67;3.10;;;;;;;;;;4992010;28;20121;-65
2021/12/28 00:33:10;;;;;;;23.33;3.28;;;;;;;;;;4992358;28;20033;-64
2021/12/28 00:35:39;;;;;;;19.15;2.90;;;;;;;;;;4990996;28;20104;-63
2021/12/28 00:38:08;;;;;;;23.10;3.22;;;;;;;;;;4990235;28;20578;-64
2021/12/28 00:40:35;;;;;;;27.33;4.05;;;;;;;;;;4992530;28;20113;-65
2021/12/28 00:43:03;;;;;;;27.55;3.08;;;;;;;;;;4991352;28;20073;-65
2021/12/28 00:45:30;;;;;;;28.25;3.40;;;;;;;;;;4991915;28;20402;-64
2021/12/28 00:47:58;;;;;;;21.25;3.10;;;;;;;;;;4990683;28;20061;-65
2021/12/28 00:50:26;;;;;;;19.13;2.47;;;;;;;;;;4989105;28;20113;-64
2021/12/28 00:52:55;;;;;;;29.00;3.88;;;;;;;;;;4992219;28;20387;-64
2021/12/28 00:55:22;;;;;;;19.58;3.17;;;;;;;;;;4991641;28;20426;-64
2021/12/28 00:57:49;;;;;;;25.50;3.67;;;;;;;;;;4990875;28;20026;-64
2021/12/28 01:00:18;;;;;;;27.60;3.70;;;;;;;;;;4990489;28;20022;-64
2021/12/28 01:02:46;;;;;;;22.33;4.05;;;;;;;;;;4990642;28;20114;-62
2021/12/28 01:05:13;;;;;;;22.48;3.30;;;;;;;;;;4991643;28;20675;-64
2021/12/28 01:07:41;;;;;;;24.92;3.28;;;;;;;;;;4991212;28;20570;-63
2021/12/28 01:10:09;;;;;;;30.20;3.90;;;;;;;;;;4991177;28;20030;-63
2021/12/28 01:12:36;;;;;;;36.38;4.05;;;;;;;;;;4990012;28;20445;-63
2021/12/28 01:15:06;;;;;;;31.17;4.50;;;;;;;;;;4990623;28;20029;-63
2021/12/28 01:17:34;;;;;;;28.10;4.32;;;;;;;;;;4990847;28;20030;-63
2021/12/28 01:20:01;;;;;;;27.92;3.65;;;;;;;;;;4990894;28;20031;-63
2021/12/28 01:22:28;;;;;;;29.80;4.32;;;;;;;;;;4990644;28;20030;-63
2021/12/28 01:24:55;;;;;;;26.48;4.65;;;;;;;;;;4989404;28;20374;-64
2021/12/28 01:27:22;;;;;;;21.83;4.38;;;;;;;;;;4990653;28;20494;-63
2021/12/28 01:29:49;;;;;;;27.13;4.47;;;;;;;;;;4990992;28;20498;-66
2021/12/28 01:32:16;;;;;;;28.10;3.67;;;;;;;;;;4991064;28;20018;-65
2021/12/28 01:34:46;;;;;;;27.55;4.25;;;;;;;;;;4990454;28;20109;-66
2021/12/28 01:37:13;;;;;;;25.52;4.32;;;;;;;;;;4989124;28;20045;-66
2021/12/28 01:39:40;;;;;;;31.63;4.05;;;;;;;;;;4990522;28;20030;-66
2021/12/28 01:42:07;;;;;;;26.98;4.13;;;;;;;;;;4990671;28;20038;-65
2021/12/28 01:44:36;;;;;;;20.55;4.00;;;;;;;;;;4991063;28;20746;-65
2021/12/28 01:47:04;;;;;;;25.35;4.13;;;;;;;;;;4989298;28;20657;-64
2021/12/28 01:49:31;;;;;;;26.17;3.78;;;;;;;;;;4989452;28;20380;-65
2021/12/28 01:51:58;;;;;;;33.03;4.18;;;;;;;;;;4990639;28;20030;-65
2021/12/28 01:54:25;;;;;;;29.13;4.63;;;;;;;;;;4990252;28;20038;-66
2021/12/28 01:56:52;;;;;;;30.20;4.90;;;;;;;;;;4991044;28;20030;-65
2021/12/28 01:59:21;;;;;;;28.10;3.92;;;;;;;;;;4989394;28;20109;-66
2021/12/28 02:01:49;;;;;;;22.65;3.90;;;;;;;;;;4989331;28;20034;-64
2021/12/28 02:04:16;;;;;;;28.52;4.22;;;;;;;;;;4990530;28;20544;-64
2021/12/28 02:06:44;;;;;;;26.95;4.28;;;;;;;;;;4990049;28;20034;-66
2021/12/28 02:09:11;;;;;;;22.95;3.53;;;;;;;;;;4990983;28;20034;-65
2021/12/28 02:11:39;;;;;;;33.10;4.72;;;;;;;;;;4988862;28;20068;-64
2021/12/28 02:14:07;;;;;;;16.25;3.53;;;;;;;;;;4989371;28;20022;-65
2021/12/28 02:16:35;;;;;;;25.10;3.50;;;;;;;;;;4990097;28;20081;-64
2021/12/28 02:19:03;;;;;;;24.33;4.18;;;;;;;;;;4989713;28;20573;-66
2021/12/28 02:21:33;;;;;;;25.48;4.15;;;;;;;;;;4990692;28;20486;-64
2021/12/28 02:24:00;;;;;;;22.92;4.30;;;;;;;;;;4988292;28;20117;-63
2021/12/28 02:26:28;;;;;;;21.92;4.28;;;;;;;;;;4989181;28;20038;-65
2021/12/28 02:28:55;;;;;;;21.63;4.45;;;;;;;;;;4990097;28;20039;-63
2021/12/28 02:31:22;;;;;;;18.90;3.97;;;;;;;;;;4988889;28;20034;-65
2021/12/28 02:33:50;;;;;;;20.52;4.05;;;;;;;;;;4990011;28;20018;-64
2021/12/28 02:36:18;;;;;;;27.58;4.40;;;;;;;;;;4988184;28;20037;-62
2021/12/28 02:38:46;;;;;;;19.42;3.38;;;;;;;;;;4989247;28;20049;-65
2021/12/28 02:41:14;;;;;;;24.73;4.28;;;;;;;;;;4990169;28;20026;-65
2021/12/28 02:43:41;;;;;;;15.77;3.70;;;;;;;;;;4989362;28;20113;-63
2021/12/28 02:46:09;;;;;;;26.10;4.75;;;;;;;;;;4989667;28;20041;-63
2021/12/28 02:48:37;;;;;;;16.65;3.70;;;;;;;;;;4987715;28;20022;-64
2021/12/28 02:51:10;;;;;;;22.17;4.40;;;;;;;;;;4989101;28;20053;-64
2021/12/28 02:53:37;;;;;;;17.95;3.28;;;;;;;;;;4989822;28;20031;-65
2021/12/28 02:56:05;;;;;;;21.70;4.47;;;;;;;;;;4989279;28;20030;-65
2021/12/28 02:58:43;;;;;;;24.33;4.05;;;;;;;;;;4988860;28;20029;-62
2021/12/28 03:01:15;;;;;;;24.15;4.53;;;;;;;;;;4987480;28;20030;-63
2021/12/28 03:03:43;;;;;;;28.80;4.38;;;;;;;;;;4989113;28;20023;-65
2021/12/28 03:06:11;;;;;;;25.40;4.43;;;;;;;;;;4989109;28;20073;-64
2021/12/28 03:08:39;;;;;;;17.50;3.60;;;;;;;;;;4989421;28;20033;-64
2021/12/28 03:11:07;;;;;;;14.20;4.38;;;;;;;;;;4988521;28;20747;-64
2021/12/28 03:13:42;;;;;;;16.83;4.40;;;;;;;;;;4987653;28;20031;-65
2021/12/28 03:16:10;;;;;;;19.02;3.33;;;;;;;;;;4988938;28;20038;-64
2021/12/28 03:18:37;;;;;;;20.02;3.90;;;;;;;;;;4988829;28;20044;-63
2021/12/28 03:21:06;;;;;;;23.58;4.47;;;;;;;;;;4989310;28;20750;-64
2021/12/28 03:23:33;;;;;;;40.13;4.38;;;;;;;;;;4987841;28;20470;-65
2021/12/28 03:26:00;;;;;;;21.27;4.88;;;;;;;;;;4987674;28;20035;-65
2021/12/28 03:28:29;;;;;;;35.95;4.03;;;;;;;;;;4988911;28;20034;-66
2021/12/28 03:30:57;;;;;;;18.52;3.90;;;;;;;;;;4988769;28;20081;-65
2021/12/28 03:33:26;;;;;;;38.47;4.80;;;;;;;;;;4988759;28;20050;-63
2021/12/28 03:35:53;;;;;;;23.13;4.45;;;;;;;;;;4987675;28;20022;-64
2021/12/28 03:38:20;;;;;;;17.83;4.30;;;;;;;;;;4987985;28;20023;-64
2021/12/28 03:40:47;;;;;;;26.15;4.53;;;;;;;;;;4988742;28;20030;-66
2021/12/28 03:43:15;;;;;;;25.63;3.80;;;;;;;;;;4988650;28;20085;-64
2021/12/28 03:45:42;;;;;;;20.70;3.92;;;;;;;;;;4988692;28;20039;-66
2021/12/28 03:48:09;;;;;;;21.33;3.90;;;;;;;;;;4986912;28;20027;-64
2021/12/28 03:50:37;;;;;;;21.50;4.22;;;;;;;;;;4988194;28;20023;-63
2021/12/28 03:53:04;;;;;;;19.67;4.32;;;;;;;;;;4988632;28;20014;-64
2021/12/28 03:55:31;;;;;;;34.00;3.83;;;;;;;;;;4988479;28;20086;-65
2021/12/28 03:58:00;;;;;;;18.25;3.40;;;;;;;;;;4988412;28;20022;-63
2021/12/28 04:00:28;;;;;;;20.23;4.20;;;;;;;;;;4986914;28;20402;-65
2021/12/28 04:02:56;;;;;;;20.05;3.95;;;;;;;;;;4988143;28;20134;-64
2021/12/28 04:05:23;;;;;;;13.95;4.50;;;;;;;;;;4988603;28;20026;-65
2021/12/28 04:07:50;;;;;;;29.20;3.88;;;;;;;;;;4988118;28;20026;-65
2021/12/28 04:10:19;;;;;;;26.05;3.97;;;;;;;;;;4989063;28;20050;-66
2021/12/28 04:12:46;;;;;;;15.85;4.05;;;;;;;;;;4986585;28;20497;-65
2021/12/28 04:15:14;;;;;;;18.45;3.85;;;;;;;;;;4988383;28;20027;-66
2021/12/28 04:17:42;;;;;;;17.17;3.60;;;;;;;;;;4988307;28;20046;-65
2021/12/28 04:20:13;;;;;;;17.95;4.03;;;;;;;;;;4988102;28;20585;-65
2021/12/28 04:22:41;;;;;;;19.20;4.22;;;;;;;;;;4988812;28;20037;-63
2021/12/28 04:25:08;;;;;;;24.42;3.88;;;;;;;;;;4986094;28;20022;-66
2021/12/28 04:27:36;;;;;;;17.73;4.32;;;;;;;;;;4988367;28;20670;-65
2021/12/28 04:30:04;;;;;;;25.08;4.38;;;;;;;;;;4987887;28;20093;-65
2021/12/28 04:32:31;;;;;;;15.52;4.05;;;;;;;;;;4988600;28;20018;-65
2021/12/28 04:34:58;;;;;;;18.45;4.18;;;;;;;;;;4987814;28;20057;-64
2021/12/28 04:37:25;;;;;;;22.70;4.15;;;;;;;;;;4986472;28;20734;-64
2021/12/28 04:39:52;;;;;;;12.85;2.90;;;;;;;;;;4988383;28;20078;-66
2021/12/28 04:42:19;;;;;;;16.70;3.60;;;;;;;;;;4988143;28;20022;-65
2021/12/28 04:44:49;;;;;;;11.88;3.33;;;;;;;;;;4988150;28;20018;-66
2021/12/28 04:47:16;;;;;;;17.65;3.28;;;;;;;;;;4987727;28;20364;-66
2021/12/28 04:49:44;;;;;;;13.27;4.20;;;;;;;;;;4986272;28;20092;-64
2021/12/28 04:52:11;;;;;;;17.48;4.15;;;;;;;;;;4988205;28;20492;-64
2021/12/28 04:54:38;;;;;;;12.60;3.20;;;;;;;;;;4988892;28;20097;-65
2021/12/28 04:57:06;;;;;;;15.25;3.42;;;;;;;;;;4991325;28;20051;-64
2021/12/28 04:59:34;;;;;;;15.82;3.80;;;;;;;;;;4990822;28;20101;-63
2021/12/28 05:02:01;;;;;;;16.98;3.85;;;;;;;;;;4990439;28;20023;-65
2021/12/28 05:04:28;;;;;;;17.55;4.35;;;;;;;;;;4991671;28;20031;-64
2021/12/28 05:06:55;;;;;;;17.23;3.60;;;;;;;;;;4995683;28;20042;-65
2021/12/28 05:09:22;;;;;;;16.23;3.88;;;;;;;;;;4990191;28;20599;-65
2021/12/28 05:11:50;;;;;;;16.10;3.33;;;;;;;;;;4990364;28;20034;-63
2021/12/28 05:14:18;;;;;;;15.95;3.75;;;;;;;;;;4990328;28;20018;-65
2021/12/28 05:16:46;;;;;;;13.40;3.25;;;;;;;;;;4991558;28;20030;-64
2021/12/28 05:19:14;;;;;;;12.35;3.20;;;;;;;;;;4991293;28;20434;-65
2021/12/28 05:21:42;;;;;;;17.70;3.40;;;;;;;;;;4990964;28;20076;-64
2021/12/28 05:24:09;;;;;;;13.85;3.70;;;;;;;;;;4989651;28;20186;-64
2021/12/28 05:26:36;;;;;;;18.02;3.80;;;;;;;;;;4990725;28;20406;-64
2021/12/28 05:29:03;;;;;;;12.20;3.83;;;;;;;;;;4991005;28;20046;-65
2021/12/28 05:31:30;;;;;;;11.68;2.88;;;;;;;;;;4991149;28;20109;-65
2021/12/28 05:33:58;;;;;;;19.42;3.47;;;;;;;;;;4990924;28;20023;-65
2021/12/28 05:36:25;;;;;;;15.93;3.58;;;;;;;;;;4989344;28;20353;-64
2021/12/28 05:38:52;;;;;;;13.20;3.28;;;;;;;;;;4990429;28;20037;-63
2021/12/28 05:41:20;;;;;;;12.52;2.75;;;;;;;;;;4991194;28;20053;-63
2021/12/28 05:43:46;;;;;;;12.95;3.28;;;;;;;;;;4989316;28;20045;-64
2021/12/28 05:46:14;;;;;;;16.05;2.97;;;;;;;;;;4989389;28;20179;-65
2021/12/28 05:48:40;;;;;;;9.65;2.92;;;;;;;;;;4988844;28;20738;-64
2021/12/28 05:51:07;;;;;;;10.52;3.00;;;;;;;;;;4990634;28;20041;-63
2021/12/28 05:53:35;;;;;;;10.95;2.97;;;;;;;;;;4990913;28;20027;-64
2021/12/28 05:56:02;;;;;;;9.23;2.88;;;;;;;;;;4990921;28;20030;-63
2021/12/28 05:58:29;;;;;;;9.25;2.65;;;;;;;;;;4990615;28;20025;-65
2021/12/28 06:00:56;;;;;;;10.13;3.50;;;;;;;;;;4988734;28;20156;-65
2021/12/28 06:03:23;;;;;;;9.32;3.30;;;;;;;;;;4989448;28;20041;-63
2021/12/28 06:05:50;;;;;;;11.40;2.97;;;;;;;;;;4990284;28;20030;-66
2021/12/28 06:08:17;;;;;;;11.77;3.30;;;;;;;;;;4990389;28;20026;-64
2021/12/28 06:10:44;;;;;;;12.40;3.22;;;;;;;;;;4990424;28;20034;-65
2021/12/28 06:13:11;;;;;;;12.50;3.05;;;;;;;;;;4988246;28;20023;-63
2021/12/28 06:15:38;;;;;;;12.00;2.65;;;;;;;;;;4990376;28;20109;-63
2021/12/28 06:18:05;;;;;;;13.73;3.38;;;;;;;;;;4990415;28;20041;-65
2021/12/28 06:20:32;;;;;;;11.02;2.95;;;;;;;;;;4990176;28;20022;-66
2021/12/28 06:22:59;;;;;;;11.73;3.40;;;;;;;;;;4989648;28;20040;-62
2021/12/28 06:25:26;;;;;;;11.77;3.00;;;;;;;;;;4988590;28;20038;-64
2021/12/28 06:27:53;;;;;;;14.90;3.30;;;;;;;;;;4990161;28;20046;-64
2021/12/28 06:30:20;;;;;;;14.45;3.42;;;;;;;;;;4989882;28;20410;-66
2021/12/28 06:32:48;;;;;;;14.30;3.13;;;;;;;;;;4994497;28;20431;-66
2021/12/28 06:35:15;;;;;;;10.40;2.95;;;;;;;;;;4988035;28;20121;-65
2021/12/28 06:37:43;;;;;;;10.48;2.97;;;;;;;;;;4988461;28;20033;-66
2021/12/28 06:40:11;;;;;;;8.98;2.88;;;;;;;;;;4990044;28;20022;-65
2021/12/28 06:42:39;;;;;;;8.63;2.47;;;;;;;;;;4989828;28;20033;-66
2021/12/28 06:45:07;;;;;;;8.02;2.90;;;;;;;;;;4989742;28;20022;-64
2021/12/28 06:47:34;;;;;;;12.95;3.00;;;;;;;;;;4988915;28;20283;-63
2021/12/28 06:50:01;;;;;;;10.10;2.70;;;;;;;;;;4988679;28;20534;-66
2021/12/28 06:52:28;;;;;;;9.02;2.65;;;;;;;;;;4990010;28;20034;-64
2021/12/28 06:54:55;;;;;;;10.52;3.00;;;;;;;;;;4989156;28;20101;-66
2021/12/28 06:57:22;;;;;;;12.32;2.67;;;;;;;;;;4989796;28;20026;-63
2021/12/28 06:59:49;;;;;;;9.13;2.78;;;;;;;;;;4988242;28;20041;-65
2021/12/28 07:02:18;;;;;;;14.02;2.97;;;;;;;;;;4988057;28;20026;-65
2021/12/28 07:04:45;;;;;;;8.45;2.45;;;;;;;;;;4989972;28;20522;-64
2021/12/28 07:07:12;;;;;;;7.43;2.33;;;;;;;;;;4988966;28;20482;-63
2021/12/28 07:09:39;;;;;;;9.65;2.40;;;;;;;;;;4989607;28;20475;-63
2021/12/28 07:12:07;;;;;;;12.77;3.33;;;;;;;;;;4988121;28;20029;-65
2021/12/28 07:14:34;;;;;;;7.10;2.38;;;;;;;;;;4988008;28;20025;-63
2021/12/28 07:17:01;;;;;;;7.50;2.60;;;;;;;;;;4989081;28;20148;-65
2021/12/28 07:19:28;;;;;;;11.80;2.60;;;;;;;;;;4989034;28;20030;-65
2021/12/28 07:21:55;;;;;;;11.25;2.50;;;;;;;;;;4987677;28;20037;-65
2021/12/28 07:24:22;;;;;;;10.27;2.40;;;;;;;;;;4987350;28;20030;-62
2021/12/28 07:26:49;;;;;;;10.48;2.90;;;;;;;;;;4988165;28;20034;-66
2021/12/28 07:29:16;;;;;;;7.85;2.50;;;;;;;;;;4988836;28;20046;-65
2021/12/28 07:31:44;;;;;;;5.53;2.30;;;;;;;;;;4988714;28;20112;-64
2021/12/28 07:34:11;;;;;;;9.15;3.05;;;;;;;;;;4988784;28;20022;-64
2021/12/28 07:36:38;;;;;;;4.55;2.10;;;;;;;;;;4987039;28;20027;-63
2021/12/28 07:39:06;;;;;;;10.85;3.05;;;;;;;;;;4988241;28;20030;-63
2021/12/28 07:41:33;;;;;;;13.38;3.35;;;;;;;;;;4989231;28;20053;-65
2021/12/28 07:44:00;;;;;;;23.80;4.90;;;;;;;;;;4988403;28;20391;-64
2021/12/28 07:46:27;;;;;;;9.35;2.70;;;;;;;;;;4988549;28;20038;-66
2021/12/28 07:48:54;;;;;;;21.65;2.65;;;;;;;;;;4987124;28;20040;-64
2021/12/28 07:51:21;;;;;;;7.60;2.58;;;;;;;;;;4987077;28;20033;-65
2021/12/28 07:53:49;;;;;;;9.30;2.80;;;;;;;;;;4989493;28;20101;-63
2021/12/28 07:56:16;;;;;;;8.15;2.60;;;;;;;;;;4992063;28;20029;-62
2021/12/28 07:58:43;;;;;;;9.77;2.75;;;;;;;;;;4987863;28;20022;-64
2021/12/28 08:01:10;;;;;;;10.80;2.70;;;;;;;;;;4986668;28;20050;-63
2021/12/28 08:03:37;;;;;;;7.03;2.63;;;;;;;;;;4988260;28;20022;-65
2021/12/28 08:06:04;;;;;;;10.63;2.88;;;;;;;;;;4988743;28;20065;-66
2021/12/28 08:08:31;;;;;;;26.90;2.90;;;;;;;;;;4988538;28;20490;-64
2021/12/28 08:10:58;;;;;;;8.38;2.60;;;;;;;;;;4988041;28;20090;-62
2021/12/28 08:13:25;;;;;;;6.88;2.40;;;;;;;;;;4986900;28;20034;-65
2021/12/28 08:15:52;;;;;;;12.20;2.80;;;;;;;;;;4988287;28;20787;-65
2021/12/28 08:18:19;;;;;;;9.10;2.88;;;;;;;;;;4988678;28;20406;-63
2021/12/28 08:20:46;;;;;;;8.00;2.75;;;;;;;;;;4988784;28;20030;-65
2021/12/28 08:23:13;;;;;;;8.23;2.53;;;;;;;;;;4987436;28;20713;-63
2021/12/28 08:25:41;;;;;;;7.68;2.65;;;;;;;;;;4985895;28;20038;-65
2021/12/28 08:28:08;;;;;;;8.55;2.95;;;;;;;;;;4987913;28;20026;-65
2021/12/28 08:30:36;;;;;;;8.07;2.75;;;;;;;;;;4990538;28;20132;-63
2021/12/28 08:33:04;;;;;;;12.98;2.83;;;;;;;;;;4992732;28;20403;-65
2021/12/28 08:35:32;;;;;;;10.18;3.38;;;;;;;;;;4990896;28;20453;-64
2021/12/28 08:37:59;;;;;;;18.05;3.10;;;;;;;;;;4991127;28;20025;-62
2021/12/28 08:40:26;;;;;;;9.77;2.83;;;;;;;;;;4992015;28;20104;-63
2021/12/28 08:42:54;;;;;;;8.18;3.03;;;;;;;;;;4991727;28;20094;-64
2021/12/28 08:45:21;;;;;;;8.55;2.97;;;;;;;;;;4992402;28;20037;-62
2021/12/28 08:47:51;;;;;;;7.40;2.75;;;;;;;;;;4990337;28;20050;-65
2021/12/28 08:50:20;;;;;;;7.15;2.53;;;;;;;;;;4991393;28;20109;-64
2021/12/28 08:52:48;;;;;;;7.30;2.75;;;;;;;;;;4991947;28;20454;-65
2021/12/28 08:55:16;;;;;;;5.93;2.70;;;;;;;;;;4991446;28;20022;-65
2021/12/28 08:57:43;;;;;;;24.65;3.35;;;;;;;;;;4992361;28;20030;-63
2021/12/28 09:00:12;;;;;;;7.05;2.83;;;;;;;;;;4989913;28;20102;-64
2021/12/28 09:02:39;;;;;;;5.53;2.75;;;;;;;;;;4991044;28;20089;-64
2021/12/28 09:05:07;;;;;;;8.23;3.00;;;;;;;;;;4991647;28;20044;-64
2021/12/28 09:07:34;;;;;;;12.38;3.45;;;;;;;;;;4991431;28;20022;-64
2021/12/28 09:10:01;;;;;;;11.07;2.80;;;;;;;;;;4992027;28;20045;-64
2021/12/28 09:12:28;;;;;;;10.48;2.90;;;;;;;;;;4989389;28;20034;-63
2021/12/28 09:14:55;;;;;;;11.15;3.13;;;;;;;;;;4991442;28;20026;-65
2021/12/28 09:17:22;;;;;;;9.65;2.83;;;;;;;;;;4991685;28;20022;-66
2021/12/28 09:19:49;;;;;;;9.88;3.35;;;;;;;;;;4991044;28;20065;-65
2021/12/28 09:22:16;;;;;;;12.40;3.50;;;;;;;;;;4992163;28;20126;-66
2021/12/28 09:24:43;;;;;;;7.18;3.42;;;;;;;;;;4989274;28;20105;-66
2021/12/28 09:27:10;;;;;;;8.38;2.70;;;;;;;;;;4990778;28;20096;-65
2021/12/28 09:29:42;;;;;;;11.85;3.65;;;;;;;;;;4991658;28;20055;-65
2021/12/28 09:32:10;;;;;;;11.32;3.00;;;;;;;;;;4990879;28;20038;-65
2021/12/28 09:34:37;;;;;;;7.55;3.60;;;;;;;;;;4991246;28;20019;-66
2021/12/28 09:37:04;;;;;;;12.32;3.30;;;;;;;;;;4989497;28;20085;-63
2021/12/28 09:39:31;;;;;;;11.75;3.45;;;;;;;;;;4991098;28;20026;-65
2021/12/28 09:42:00;;;;;;;8.20;2.67;;;;;;;;;;4991388;28;20073;-65
2021/12/28 09:44:28;;;;;;;12.10;3.15;;;;;;;;;;4991028;28;20023;-65
2021/12/28 09:46:55;;;;;;;10.95;3.35;;;;;;;;;;4990642;28;20034;-63
2021/12/28 09:49:22;;;;;;;11.75;3.45;;;;;;;;;;4989563;28;20467;-64
2021/12/28 09:51:49;;;;;;;14.07;3.50;;;;;;;;;;4990714;28;20121;-65
2021/12/28 09:54:17;;;;;;;8.80;3.10;;;;;;;;;;4991040;28;20372;-62
2021/12/28 09:56:44;;;;;;;9.25;2.97;;;;;;;;;;4990704;28;20030;-63
2021/12/28 09:59:11;;;;;;;7.88;3.28;;;;;;;;;;4990238;28;20034;-64
2021/12/28 10:01:38;;;;;;;9.25;3.05;;;;;;;;;;4989701;28;20015;-65
2021/12/28 10:04:05;;;;;;;12.25;3.40;;;;;;;;;;4990100;28;20565;-65
2021/12/28 10:06:32;;;;;;;8.88;3.15;;;;;;;;;;4991052;28;20552;-63
2021/12/28 10:09:07;;;;;;;13.15;3.05;;;;;;;;;;4990615;28;20101;-65
2021/12/28 10:11:38;;;;;;;9.60;2.97;;;;;;;;;;4989356;28;20030;-62
2021/12/28 10:14:21;;;;;;;10.60;3.10;;;;;;;;;;4989688;28;20125;-65
2021/12/28 10:16:47;;;;;;;;;;;;;;;;;;4990829;28;20045;-65
2021/12/28 10:19:34;;;;;;;12.90;3.15;;;;;;;;;;4990812;28;19906;-63
2021/12/28 10:22:19;;;;;;;16.65;3.95;;;;;;;;;;4990998;28;20487;-65
2021/12/28 10:24:47;;;;;;;9.52;3.30;;;;;;;;;;4988183;28;20030;-66
2021/12/28 10:27:15;;;;;;;13.45;2.83;;;;;;;;;;4989995;28;20089;-63
2021/12/28 10:29:42;;;;;;;13.90;3.25;;;;;;;;;;4988877;28;20388;-63
2021/12/28 10:32:29;;;;;;;14.02;3.63;;;;;;;;;;4990069;28;20064;-62
2021/12/28 10:34:58;;;;;;;11.45;3.72;;;;;;;;;;4989659;28;20034;-64
2021/12/28 10:37:29;;;;;;;8.80;3.28;;;;;;;;;;4988668;28;20050;-65
2021/12/28 10:39:58;;;;;;;10.40;2.88;;;;;;;;;;4989632;28;20022;-65
2021/12/28 10:42:38;;;;;;;13.45;3.80;;;;;;;;;;4990298;28;20030;-64
2021/12/28 10:45:08;;;;;;;10.38;3.20;;;;;;;;;;4989709;28;20491;-64
2021/12/28 10:47:35;;;;;;;22.02;3.38;;;;;;;;;;4987718;28;20137;-63
2021/12/28 10:50:19;;;;;;;16.65;3.92;;;;;;;;;;4989117;28;20477;-65
2021/12/28 10:52:52;;;;;;;10.68;3.45;;;;;;;;;;4989006;28;20136;-64
2021/12/28 10:55:24;;;;;;;14.13;3.78;;;;;;;;;;4989426;28;20049;-64
2021/12/28 10:57:52;;;;;;;14.68;3.20;;;;;;;;;;4990192;28;20057;-65
2021/12/28 11:00:41;;;;;;;20.23;3.55;;;;;;;;;;4987957;28;20037;-64
2021/12/28 11:03:31;;;;;;;13.52;3.60;;;;;;;;;;4989621;28;20065;-65
2021/12/28 11:06:00;;;;;;;21.67;3.35;;;;;;;;;;4990065;28;20060;-64
2021/12/28 11:08:28;;;;;;;17.25;3.72;;;;;;;;;;4989444;28;20027;-64
2021/12/28 11:10:56;;;;;;;17.23;3.28;;;;;;;;;;4989805;28;20118;-63
2021/12/28 11:13:28;;;;;;;14.63;3.38;;;;;;;;;;4987685;28;20073;-65
2021/12/28 11:15:55;;;;;;;;;;;;;;;;;;4989860;28;20486;-64
2021/12/28 11:18:30;;;;;;;12.77;3.15;;;;;;;;;;4989653;28;20421;-64
2021/12/28 11:20:57;;;;;;;12.93;3.38;;;;;;;;;;4989120;28;20038;-63
2021/12/28 11:23:26;;;;;;;11.20;3.15;;;;;;;;;;4988626;28;20487;-63
2021/12/28 11:26:07;;;;;;;13.48;3.70;;;;;;;;;;4988003;28;20061;-63
2021/12/28 11:28:35;;;;;;;19.25;3.20;;;;;;;;;;4988789;28;20038;-64
2021/12/28 11:31:16;;;;;;;12.07;3.78;;;;;;;;;;4989329;28;20434;-63
2021/12/28 11:33:49;;;;;;;11.73;3.03;;;;;;;;;;4989130;28;20116;-63
2021/12/28 11:36:18;;;;;;;13.40;3.35;;;;;;;;;;4987440;28;20113;-62
2021/12/28 11:38:45;;;;;;;13.15;3.17;;;;;;;;;;4988968;28;20205;-65
2021/12/28 11:41:13;;;;;;;14.45;3.40;;;;;;;;;;4987577;28;20436;-64
2021/12/28 11:43:41;;;;;;;20.33;3.20;;;;;;;;;;4987659;28;20022;-64
2021/12/28 11:46:08;;;;;;;12.07;3.40;;;;;;;;;;4989202;28;20034;-62
2021/12/28 11:48:36;;;;;;;16.27;3.45;;;;;;;;;;4987010;28;20038;-61
2021/12/28 11:51:03;;;;;;;11.07;3.40;;;;;;;;;;4988752;28;20112;-64
2021/12/28 11:53:31;;;;;;;9.75;3.40;;;;;;;;;;4989070;28;20490;-65
2021/12/28 11:55:59;;;;;;;17.83;3.85;;;;;;;;;;4988685;28;20050;-64
2021/12/28 11:58:45;;;;;;;13.95;3.47;;;;;;;;;;4988976;28;20033;-64
2021/12/28 12:01:31;;;;;;;14.73;3.63;;;;;;;;;;4986695;28;20022;-65
2021/12/28 12:03:58;;;;;;;8.60;2.90;;;;;;;;;;4988322;28;20045;-64
2021/12/28 12:06:45;;;;;;;15.07;3.80;;;;;;;;;;4988920;28;20043;-65
2021/12/28 12:09:12;;;;;;;10.93;3.17;;;;;;;;;;4988834;28;20085;-64
2021/12/28 12:11:57;;;;;;;9.82;3.30;;;;;;;;;;4988068;28;20033;-64
2021/12/28 12:14:44;;;;;;;8.35;2.80;;;;;;;;;;4987768;28;20085;-65
2021/12/28 12:17:29;;;;;;;9.93;3.50;;;;;;;;;;4988420;28;20030;-63
2021/12/28 12:19:57;;;;;;;11.38;3.50;;;;;;;;;;4988796;28;20741;-64
2021/12/28 12:22:33;;;;;;;11.30;3.63;;;;;;;;;;4989147;28;20081;-64
2021/12/28 12:25:14;;;;;;;9.40;3.28;;;;;;;;;;4986207;28;20064;-64
2021/12/28 12:27:55;;;;;;;17.88;3.53;;;;;;;;;;4988464;28;20034;-62
2021/12/28 12:30:22;;;;;;;11.52;3.15;;;;;;;;;;4988741;28;20090;-63
2021/12/28 12:33:01;;;;;;;10.95;3.25;;;;;;;;;;4988207;28;20038;-64
2021/12/28 12:35:32;;;;;;;12.20;3.38;;;;;;;;;;4987846;28;20066;-64
2021/12/28 12:37:59;;;;;;;15.82;3.67;;;;;;;;;;4987358;28;20040;-64
2021/12/28 12:41:02;;;;;;;13.00;2.97;;;;;;;;;;4988584;28;20029;-62
2021/12/28 12:43:38;;;;;;;11.00;3.67;;;;;;;;;;4928112;29;20031;-63
2021/12/28 12:46:10;;;;;;;9.85;2.92;;;;;;;;;;4980623;28;20149;-62
2021/12/28 12:48:36;;;;;;;;;;;;;;;;;;4986839;28;20043;-62
2021/12/28 12:51:21;;;;;;;9.35;3.65;;;;;;;;;;4988385;28;20056;-62
2021/12/28 12:53:50;;;;;;;14.40;3.63;;;;;;;;;;4988193;28;20632;-64
2021/12/28 12:56:18;;;;;;;12.27;3.08;;;;;;;;;;4988253;28;20431;-64
2021/12/28 12:58:46;;;;;;;13.18;3.20;;;;;;;;;;4988391;28;20041;-64
2021/12/28 13:01:30;;;;;;;15.20;3.42;;;;;;;;;;4986078;28;20027;-65
2021/12/28 13:03:59;;;;;;;8.52;3.30;;;;;;;;;;4988360;28;20065;-64
2021/12/28 13:06:46;;;;;;;11.27;3.47;;;;;;;;;;4988086;28;20123;-61
2021/12/28 13:09:14;;;;;;;14.82;2.80;;;;;;;;;;4958079;28;20039;-63
2021/12/28 13:11:42;;;;;;;18.80;3.42;;;;;;;;;;4987501;28;20030;-62
2021/12/28 13:14:10;;;;;;;14.27;3.65;;;;;;;;;;4989555;28;20097;-64
2021/12/28 13:16:37;;;;;;;12.50;3.22;;;;;;;;;;4992861;28;20058;-64
2021/12/28 13:19:14;;;;;;;12.10;3.28;;;;;;;;;;4994762;28;20014;-65
2021/12/28 13:21:54;;;;;;;8.85;3.00;;;;;;;;;;4994833;28;20053;-64
2021/12/28 13:24:21;;;;;;;10.48;3.72;;;;;;;;;;4992955;28;20041;-63
2021/12/28 13:27:01;;;;;;;8.18;3.00;;;;;;;;;;4993038;28;20045;-63
2021/12/28 13:29:30;;;;;;;9.00;2.63;;;;;;;;;;4994392;28;20517;-63
2021/12/28 13:32:19;;;;;;;14.35;2.97;;;;;;;;;;4994592;28;20034;-63
2021/12/28 13:35:04;;;;;;;10.77;2.78;;;;;;;;;;4993438;28;20031;-64
2021/12/28 13:37:33;;;;;;;10.35;3.20;;;;;;;;;;4992023;28;20046;-63
2021/12/28 13:40:11;;;;;;;9.48;3.17;;;;;;;;;;4994538;28;20486;-63
2021/12/28 13:42:41;;;;;;;7.80;3.08;;;;;;;;;;4976913;28;20030;-62
2021/12/28 13:45:11;;;;;;;8.43;2.97;;;;;;;;;;4993307;28;20022;-63
2021/12/28 13:47:42;;;;;;;14.10;3.30;;;;;;;;;;4992781;28;20042;-62
2021/12/28 13:50:13;;;;;;;7.75;2.75;;;;;;;;;;4993152;28;20028;-62
2021/12/28 13:52:48;;;;;;;7.73;2.63;;;;;;;;;;4994338;28;20026;-63
2021/12/28 13:55:17;;;;;;;12.32;2.97;;;;;;;;;;4993528;28;20273;-62
2021/12/28 13:57:44;;;;;;;7.97;2.80;;;;;;;;;;4993854;28;20022;-64
2021/12/28 14:00:12;;;;;;;8.32;2.90;;;;;;;;;;4992529;28;20474;-60
2021/12/28 14:02:40;;;;;;;8.35;3.15;;;;;;;;;;4993432;28;20030;-61
2021/12/28 14:05:09;;;;;;;8.55;2.90;;;;;;;;;;4993233;28;20018;-63
2021/12/28 14:07:39;;;;;;;11.57;3.08;;;;;;;;;;4993409;28;20085;-63
2021/12/28 14:10:06;;;;;;;10.65;2.50;;;;;;;;;;4994070;28;20113;-62
2021/12/28 14:12:33;;;;;;;9.32;2.63;;;;;;;;;;4991679;28;20037;-64
2021/12/28 14:15:00;;;;;;;10.02;3.70;;;;;;;;;;4992864;28;20494;-63
2021/12/28 14:17:30;;;;;;;8.30;2.40;;;;;;;;;;4993293;28;20394;-62
2021/12/28 14:19:59;;;;;;;12.90;3.50;;;;;;;;;;4992428;28;20034;-61
2021/12/28 14:22:27;;;;;;;7.68;2.78;;;;;;;;;;4991873;28;20034;-61
2021/12/28 14:24:55;;;;;;;9.13;3.47;;;;;;;;;;4991526;28;20019;-63
2021/12/28 14:27:27;;;;;;;10.23;2.60;;;;;;;;;;4991676;28;20037;-61
2021/12/28 14:30:01;;;;;;;9.93;3.40;;;;;;;;;;4993271;28;20053;-63
2021/12/28 14:32:40;;;;;;;9.00;2.88;;;;;;;;;;4993446;28;20447;-65
2021/12/28 14:35:11;;;;;;;10.23;3.40;;;;;;;;;;4992705;28;20026;-63
2021/12/28 14:37:40;;;;;;;5.93;2.88;;;;;;;;;;4989695;28;20372;-62
2021/12/28 14:40:36;;;;;;;9.68;3.08;;;;;;;;;;4993252;28;20026;-62
2021/12/28 14:43:10;;;;;;;10.05;3.15;;;;;;;;;;4984790;28;20038;-62
2021/12/28 14:45:37;;;;;;;17.65;3.05;;;;;;;;;;4992262;28;20034;-61
2021/12/28 14:48:04;;;;;;;8.10;2.95;;;;;;;;;;4991252;28;20026;-61